Manawanui Hmnzs — ZMLR — position and weather

sailwx.info

Track history (hours):
 
Tides and Currents Weather Stations Pressure Air Temp Water Temp Dewpoint Dewpoint Depression Visibility Wind Speed Wind Dir Waves Ship Positions

Manawanui Hmnzs

Last reported at 2017-Nov-30 19:25 UTC. Time now 2017-Dec-17 23:29 UTC.
Position S 36°50' E 174°47'.
Warning: this ship's position is 17 days out of date.

MMSI: 512000300.

Date/timePositionNaut miles runAvg speedWind from/ knotsBaromVisibWave heightAir tempDewpointWater temp
2017-Nov-30 19:25S 36°50' E 174°47'2 5.2
2017-Nov-30 18:57S 36°49' E 174°50'3 7.8
2017-Nov-30 18:30S 36°46' E 174°49'2 0.1
2017-Nov-29 20:59S 36°45' E 174°52'5 7.5
2017-Nov-29 20:23S 36°49' E 174°50'1 0.7
2017-Nov-29 19:34S 36°50' E 174°50'1 8.6
2017-Nov-29 19:28S 36°49' E 174°50'4 7.7
2017-Nov-29 19:00S 36°45' E 174°50'2 0.1
2017-Nov-29 05:44S 36°44' E 174°48'1 5.1
2017-Nov-29 05:27S 36°44' E 174°46'1 2.3
2017-Nov-29 04:59S 36°43' E 174°47'3 6.7
2017-Nov-29 04:28S 36°40' E 174°49'3 5.6
2017-Nov-29 04:01S 36°38' E 174°49'2 3.9
2017-Nov-29 03:30S 36°38' E 174°52'0 0.6
2017-Nov-29 03:00S 36°37' E 174°52'2 4.1
2017-Nov-29 02:31S 36°38' E 174°49'2 3.7
2017-Nov-29 02:00S 36°37' E 174°52'4 8.6
2017-Nov-29 01:31S 36°34' E 174°48'3 5.8
2017-Nov-29 01:01S 36°32' E 174°45'4 8.0
2017-Nov-29 00:30S 36°29' E 174°48'3 6.6
2017-Nov-29 00:00S 36°26' E 174°47'5 9.0
2017-Nov-28 23:27S 36°23' E 174°53'2 3.7
2017-Nov-28 23:00S 36°24' E 174°54'1 1.6
2017-Nov-28 22:30S 36°23' E 174°54'1 2.0
2017-Nov-28 22:00S 36°23' E 174°56'5 9.6
2017-Nov-28 21:30S 36°23' E 174°50'2 3.2
2017-Nov-28 21:00S 36°25' E 174°49'4 7.9
2017-Nov-28 20:30S 36°28' E 174°50'5 9.5
2017-Nov-28 20:00S 36°32' E 174°45'3 6.5
2017-Nov-28 19:30S 36°34' E 174°48'4 8.6
2017-Nov-28 19:00S 36°37' E 174°52'0 0.8
2017-Nov-28 18:30S 36°37' E 174°52'4 8.5
2017-Nov-28 18:00S 36°34' E 174°48'3 6.6
2017-Nov-28 17:30S 36°31' E 174°46'5 9.6
2017-Nov-28 17:00S 36°28' E 174°51'3 6.8
2017-Nov-28 16:30S 36°30' E 174°47'4 7.5
2017-Nov-28 16:00S 36°33' E 174°46'7 6.4
2017-Nov-28 14:57S 36°40' E 174°48'510.2
2017-Nov-28 14:30S 36°44' E 174°48'4 8.3
2017-Nov-28 13:59S 36°44' E 174°53'5 9.8
2017-Nov-28 13:30S 36°40' E 174°56'510.5
2017-Nov-28 13:00S 36°35' E 174°57'510.4
2017-Nov-28 12:30S 36°30' E 174°56'4 7.7
2017-Nov-28 12:00S 36°28' E 174°52'5 9.9
2017-Nov-28 11:30S 36°30' E 174°46'4 7.1
2017-Nov-28 11:00S 36°33' E 174°47'4 8.9
2017-Nov-28 10:30S 36°36' E 174°51'5 9.2
2017-Nov-28 10:00S 36°40' E 174°48'5 9.9
2017-Nov-28 09:30S 36°45' E 174°48'4 6.9
2017-Nov-28 08:52S 36°49' E 174°50'1 1.8
2017-Nov-28 08:19S 36°50' E 174°49'3 8.6
2017-Nov-28 07:59S 36°47' E 174°48'510.0
2017-Nov-28 07:30S 36°43' E 174°51'4 8.2
2017-Nov-28 07:00S 36°39' E 174°50'1 2.3
2017-Nov-28 06:29S 36°40' E 174°51'2 3.5
2017-Nov-28 05:52S 36°41' E 174°53'3 7.5
2017-Nov-28 05:26S 36°39' E 174°50'6 6.4
2017-Nov-28 04:30S 36°34' E 174°47'3 5.7
2017-Nov-28 04:00S 36°31' E 174°46'3 5.8
2017-Nov-28 03:30S 36°29' E 174°49'3 6.6
2017-Nov-28 03:00S 36°26' E 174°48'5 8.0
2017-Nov-28 02:23S 36°23' E 174°53'3 9.2
2017-Nov-28 02:00S 36°23' E 174°49'4 8.4
2017-Nov-28 01:30S 36°27' E 174°49'2 4.4
2017-Nov-28 01:00S 36°29' E 174°47'4 7.9
2017-Nov-28 00:30S 36°33' E 174°45'2 4.8
2017-Nov-28 00:00S 36°34' E 174°48'4 7.9
2017-Nov-27 23:30S 36°36' E 174°52'3 6.3
2017-Nov-27 23:00S 36°34' E 174°49'1 1.1
2017-Nov-27 22:30S 36°34' E 174°50'3 5.8
2017-Nov-27 22:00S 36°33' E 174°46'2 3.6
2017-Nov-27 21:30S 36°32' E 174°45'3 6.9
2017-Nov-27 21:00S 36°29' E 174°48'3 6.6
2017-Nov-27 20:30S 36°26' E 174°48'17 1.8
2017-Nov-27 11:01S 36°43' E 174°52'0 7.6
2017-Nov-27 11:00S 36°43' E 174°52'5 9.8
2017-Nov-27 10:28S 36°47' E 174°48'3 5.3
2017-Nov-27 09:50S 36°50' E 174°47'3 6.4
2017-Nov-27 09:25S 36°48' E 174°49'1 1.5
2017-Nov-27 08:49S 36°47' E 174°48'3 3.6
2017-Nov-27 08:01S 36°50' E 174°49'010.7
2017-Nov-27 08:00S 36°50' E 174°50'4 8.6
2017-Nov-27 07:30S 36°45' E 174°49'5 9.1
2017-Nov-27 07:00S 36°41' E 174°52'3 7.1
2017-Nov-27 06:31S 36°42' E 174°48'5 9.5
2017-Nov-27 06:00S 36°39' E 174°53'3 6.3
2017-Nov-27 05:30S 36°40' E 174°49'4 7.1
2017-Nov-27 05:01S 36°37' E 174°51'4 7.5
2017-Nov-27 04:30S 36°34' E 174°49'2 3.1
2017-Nov-27 04:00S 36°34' E 174°47'3 5.6
2017-Nov-27 03:30S 36°31' E 174°46'4 7.8
2017-Nov-27 03:00S 36°28' E 174°49'4 7.9
2017-Nov-27 02:30S 36°24' E 174°49'3 6.5
2017-Nov-27 01:59S 36°23' E 174°53'4 7.8
2017-Nov-27 01:30S 36°25' E 174°49'4 7.2
2017-Nov-27 01:00S 36°29' E 174°49'2 4.8
2017-Nov-27 00:30S 36°30' E 174°46'3 6.8
2017-Nov-27 00:00S 36°33' E 174°47'5 9.1
2017-Nov-26 23:30S 36°36' E 174°52'6 9.1
2017-Nov-26 22:48S 36°42' E 174°50'2 6.5
2017-Nov-26 22:30S 36°44' E 174°49'5 6.0
2017-Nov-26 21:37S 36°49' E 174°50'3 6.8
2017-Nov-26 21:15S 36°50' E 174°47'  
2017-Nov-23 17:57S 36°50' E 174°47'2 4.7
2017-Nov-23 17:30S 36°50' E 174°50'4 8.8
2017-Nov-23 17:01S 36°45' E 174°50'11 0.5
2017-Nov-22 19:36S 36°34' E 174°49'110.5
2017-Nov-22 19:30S 36°34' E 174°48'  
Track history (hours):
 
Tides and Currents Weather Stations Pressure Air Temp Water Temp Dewpoint Dewpoint Depression Visibility Wind Speed Wind Dir Waves Ship Positions

Manawanui Hmnzs

Last reported at 2017-Nov-30 19:25 UTC. Time now 2017-Dec-17 23:29 UTC.
Position S 36°50' E 174°47'.
Warning: this ship's position is 17 days out of date.

MMSI: 512000300.

Date/timePositionNaut miles runAvg speedWind from/ knotsBaromVisibWave heightAir tempDewpointWater temp
2017-Nov-30 19:25S 36°50' E 174°47'2 5.2
2017-Nov-30 18:57S 36°49' E 174°50'3 7.8
2017-Nov-30 18:30S 36°46' E 174°49'2 0.1
2017-Nov-29 20:59S 36°45' E 174°52'5 7.5
2017-Nov-29 20:23S 36°49' E 174°50'1 0.7
2017-Nov-29 19:34S 36°50' E 174°50'1 8.6
2017-Nov-29 19:28S 36°49' E 174°50'4 7.7
2017-Nov-29 19:00S 36°45' E 174°50'2 0.1
2017-Nov-29 05:44S 36°44' E 174°48'1 5.1
2017-Nov-29 05:27S 36°44' E 174°46'1 2.3
2017-Nov-29 04:59S 36°43' E 174°47'3 6.7
2017-Nov-29 04:28S 36°40' E 174°49'3 5.6
2017-Nov-29 04:01S 36°38' E 174°49'2 3.9
2017-Nov-29 03:30S 36°38' E 174°52'0 0.6
2017-Nov-29 03:00S 36°37' E 174°52'2 4.1
2017-Nov-29 02:31S 36°38' E 174°49'2 3.7
2017-Nov-29 02:00S 36°37' E 174°52'4 8.6
2017-Nov-29 01:31S 36°34' E 174°48'3 5.8
2017-Nov-29 01:01S 36°32' E 174°45'4 8.0
2017-Nov-29 00:30S 36°29' E 174°48'3 6.6
2017-Nov-29 00:00S 36°26' E 174°47'5 9.0
2017-Nov-28 23:27S 36°23' E 174°53'2 3.7
2017-Nov-28 23:00S 36°24' E 174°54'1 1.6
2017-Nov-28 22:30S 36°23' E 174°54'1 2.0
2017-Nov-28 22:00S 36°23' E 174°56'5 9.6
2017-Nov-28 21:30S 36°23' E 174°50'2 3.2
2017-Nov-28 21:00S 36°25' E 174°49'4 7.9
2017-Nov-28 20:30S 36°28' E 174°50'5 9.5
2017-Nov-28 20:00S 36°32' E 174°45'3 6.5
2017-Nov-28 19:30S 36°34' E 174°48'4 8.6
2017-Nov-28 19:00S 36°37' E 174°52'0 0.8
2017-Nov-28 18:30S 36°37' E 174°52'4 8.5
2017-Nov-28 18:00S 36°34' E 174°48'3 6.6
2017-Nov-28 17:30S 36°31' E 174°46'5 9.6
2017-Nov-28 17:00S 36°28' E 174°51'3 6.8
2017-Nov-28 16:30S 36°30' E 174°47'4 7.5
2017-Nov-28 16:00S 36°33' E 174°46'7 6.4
2017-Nov-28 14:57S 36°40' E 174°48'510.2
2017-Nov-28 14:30S 36°44' E 174°48'4 8.3
2017-Nov-28 13:59S 36°44' E 174°53'5 9.8
2017-Nov-28 13:30S 36°40' E 174°56'510.5
2017-Nov-28 13:00S 36°35' E 174°57'510.4
2017-Nov-28 12:30S 36°30' E 174°56'4 7.7
2017-Nov-28 12:00S 36°28' E 174°52'5 9.9
2017-Nov-28 11:30S 36°30' E 174°46'4 7.1
2017-Nov-28 11:00S 36°33' E 174°47'4 8.9
2017-Nov-28 10:30S 36°36' E 174°51'5 9.2
2017-Nov-28 10:00S 36°40' E 174°48'5 9.9
2017-Nov-28 09:30S 36°45' E 174°48'4 6.9
2017-Nov-28 08:52S 36°49' E 174°50'1 1.8
2017-Nov-28 08:19S 36°50' E 174°49'3 8.6
2017-Nov-28 07:59S 36°47' E 174°48'510.0
2017-Nov-28 07:30S 36°43' E 174°51'4 8.2
2017-Nov-28 07:00S 36°39' E 174°50'1 2.3
2017-Nov-28 06:29S 36°40' E 174°51'2 3.5
2017-Nov-28 05:52S 36°41' E 174°53'3 7.5
2017-Nov-28 05:26S 36°39' E 174°50'6 6.4
2017-Nov-28 04:30S 36°34' E 174°47'3 5.7
2017-Nov-28 04:00S 36°31' E 174°46'3 5.8
2017-Nov-28 03:30S 36°29' E 174°49'3 6.6
2017-Nov-28 03:00S 36°26' E 174°48'5 8.0
2017-Nov-28 02:23S 36°23' E 174°53'3 9.2
2017-Nov-28 02:00S 36°23' E 174°49'4 8.4
2017-Nov-28 01:30S 36°27' E 174°49'2 4.4
2017-Nov-28 01:00S 36°29' E 174°47'4 7.9
2017-Nov-28 00:30S 36°33' E 174°45'2 4.8
2017-Nov-28 00:00S 36°34' E 174°48'4 7.9
2017-Nov-27 23:30S 36°36' E 174°52'3 6.3
2017-Nov-27 23:00S 36°34' E 174°49'1 1.1
2017-Nov-27 22:30S 36°34' E 174°50'3 5.8
2017-Nov-27 22:00S 36°33' E 174°46'2 3.6
2017-Nov-27 21:30S 36°32' E 174°45'3 6.9
2017-Nov-27 21:00S 36°29' E 174°48'3 6.6
2017-Nov-27 20:30S 36°26' E 174°48'17 1.8
2017-Nov-27 11:01S 36°43' E 174°52'0 7.6
2017-Nov-27 11:00S 36°43' E 174°52'5 9.8
2017-Nov-27 10:28S 36°47' E 174°48'3 5.3
2017-Nov-27 09:50S 36°50' E 174°47'3 6.4
2017-Nov-27 09:25S 36°48' E 174°49'1 1.5
2017-Nov-27 08:49S 36°47' E 174°48'3 3.6
2017-Nov-27 08:01S 36°50' E 174°49'010.7
2017-Nov-27 08:00S 36°50' E 174°50'4 8.6
2017-Nov-27 07:30S 36°45' E 174°49'5 9.1
2017-Nov-27 07:00S 36°41' E 174°52'3 7.1
2017-Nov-27 06:31S 36°42' E 174°48'5 9.5
2017-Nov-27 06:00S 36°39' E 174°53'3 6.3
2017-Nov-27 05:30S 36°40' E 174°49'4 7.1
2017-Nov-27 05:01S 36°37' E 174°51'4 7.5
2017-Nov-27 04:30S 36°34' E 174°49'2 3.1
2017-Nov-27 04:00S 36°34' E 174°47'3 5.6
2017-Nov-27 03:30S 36°31' E 174°46'4 7.8
2017-Nov-27 03:00S 36°28' E 174°49'4 7.9
2017-Nov-27 02:30S 36°24' E 174°49'3 6.5
2017-Nov-27 01:59S 36°23' E 174°53'4 7.8
2017-Nov-27 01:30S 36°25' E 174°49'4 7.2
2017-Nov-27 01:00S 36°29' E 174°49'2 4.8
2017-Nov-27 00:30S 36°30' E 174°46'3 6.8
2017-Nov-27 00:00S 36°33' E 174°47'5 9.1
2017-Nov-26 23:30S 36°36' E 174°52'6 9.1
2017-Nov-26 22:48S 36°42' E 174°50'2 6.5
2017-Nov-26 22:30S 36°44' E 174°49'5 6.0
2017-Nov-26 21:37S 36°49' E 174°50'3 6.8
2017-Nov-26 21:15S 36°50' E 174°47'  
2017-Nov-23 17:57S 36°50' E 174°47'2 4.7
2017-Nov-23 17:30S 36°50' E 174°50'4 8.8
2017-Nov-23 17:01S 36°45' E 174°50'11 0.5
2017-Nov-22 19:36S 36°34' E 174°49'110.5
2017-Nov-22 19:30S 36°34' E 174°48'  

Dump ship's entire track history